createdAt,value
2022-10-18T00:02:25.529Z,2.13
2022-10-18T00:05:12.570Z,2.17
2022-10-18T00:07:59.517Z,2.10
2022-10-18T00:10:46.992Z,2.10
2022-10-18T00:13:34.891Z,2.27
2022-10-18T00:16:22.819Z,2.50
2022-10-18T00:19:09.435Z,2.23
2022-10-18T00:21:56.328Z,2.37
2022-10-18T00:24:43.222Z,2.37
2022-10-18T00:27:30.493Z,2.03
2022-10-18T00:30:17.593Z,1.83
2022-10-18T00:33:05.705Z,1.90
2022-10-18T00:35:52.708Z,2.17
2022-10-18T00:38:41.420Z,2.43
2022-10-18T00:41:29.531Z,2.00
2022-10-18T00:45:02.271Z,2.23
2022-10-18T00:47:53.447Z,1.93
2022-10-18T00:50:42.588Z,1.70
2022-10-18T00:53:29.365Z,1.90
2022-10-18T00:56:16.103Z,1.80
2022-10-18T00:59:03.226Z,1.87
2022-10-18T01:01:50.233Z,1.97
2022-10-18T01:04:37.608Z,2.00
2022-10-18T01:07:38.332Z,2.90
2022-10-18T01:10:30.191Z,2.10
2022-10-18T01:13:30.146Z,2.00
2022-10-18T01:16:23.817Z,2.27
2022-10-18T01:19:27.300Z,2.90
2022-10-18T01:22:21.147Z,2.30
2022-10-18T01:25:21.315Z,2.20
2022-10-18T01:28:17.628Z,1.70
2022-10-18T01:31:08.341Z,2.10
2022-10-18T01:36:54.986Z,1.80
2022-10-18T01:39:46.425Z,2.00
2022-10-18T01:42:34.216Z,2.57
2022-10-18T01:45:23.316Z,2.00
2022-10-18T01:48:13.069Z,2.20
2022-10-18T01:50:59.843Z,2.40
2022-10-18T01:53:46.804Z,1.77
2022-10-18T01:56:41.127Z,1.97
2022-10-18T01:59:48.201Z,1.80
2022-10-18T02:02:43.067Z,1.83
2022-10-18T02:05:40.272Z,2.07
2022-10-18T02:08:31.768Z,2.10
2022-10-18T02:11:19.481Z,1.97
2022-10-18T02:14:11.397Z,2.20
2022-10-18T02:17:03.090Z,2.20
2022-10-18T02:19:53.067Z,2.43
2022-10-18T02:22:42.921Z,1.97
2022-10-18T02:25:32.948Z,1.70
2022-10-18T02:28:19.962Z,2.20
2022-10-18T02:31:15.168Z,2.07
2022-10-18T02:34:05.588Z,2.03
2022-10-18T02:36:54.575Z,2.20
2022-10-18T02:39:47.552Z,1.67
2022-10-18T02:42:36.696Z,1.90
2022-10-18T02:45:25.001Z,2.17
2022-10-18T02:48:11.728Z,1.73
2022-10-18T02:50:58.410Z,1.93
2022-10-18T02:53:45.531Z,2.00
2022-10-18T02:56:34.133Z,2.10
2022-10-18T02:59:21.021Z,2.00
2022-10-18T03:02:08.001Z,2.00
2022-10-18T03:04:54.548Z,1.63
2022-10-18T03:07:41.588Z,1.80
2022-10-18T03:10:28.283Z,1.90
2022-10-18T03:13:17.202Z,1.90
2022-10-18T03:16:04.266Z,2.00
2022-10-18T03:18:50.760Z,1.83
2022-10-18T03:21:37.891Z,2.43
2022-10-18T03:24:24.841Z,2.50
2022-10-18T03:27:11.831Z,2.43
2022-10-18T03:30:00.986Z,2.07
2022-10-18T03:32:48.305Z,2.27
2022-10-18T03:35:35.726Z,2.07
2022-10-18T03:38:22.556Z,2.13
2022-10-18T03:41:09.878Z,2.07
2022-10-18T03:43:56.623Z,2.10
2022-10-18T03:46:44.511Z,2.60
2022-10-18T03:52:18.477Z,2.60
2022-10-18T03:55:06.657Z,2.40
2022-10-18T03:57:53.713Z,2.50
2022-10-18T04:00:40.383Z,2.50
2022-10-18T04:03:28.871Z,2.63
2022-10-18T04:06:15.553Z,2.70
2022-10-18T04:09:04.215Z,2.40
2022-10-18T04:11:54.168Z,2.77
2022-10-18T04:14:40.989Z,2.57
2022-10-18T04:17:28.413Z,2.50
2022-10-18T04:20:16.785Z,2.00
2022-10-18T04:23:03.555Z,2.87
2022-10-18T04:25:50.904Z,2.50
2022-10-18T04:28:40.150Z,2.67
2022-10-18T04:31:27.320Z,2.67
2022-10-18T04:34:14.402Z,2.30
2022-10-18T04:37:03.025Z,2.40
2022-10-18T04:39:53.507Z,2.43
2022-10-18T04:42:41.091Z,2.50
2022-10-18T04:45:28.107Z,2.53
2022-10-18T04:48:14.727Z,2.50
2022-10-18T04:51:01.472Z,2.57
2022-10-18T04:53:49.641Z,2.90
2022-10-18T04:56:36.190Z,2.70
2022-10-18T04:59:33.642Z,2.70
2022-10-18T05:02:20.933Z,2.17
2022-10-18T05:05:10.419Z,2.70
2022-10-18T05:08:00.317Z,2.50
2022-10-18T05:10:48.897Z,2.30
2022-10-18T05:13:36.246Z,2.50
2022-10-18T05:16:23.272Z,2.50
2022-10-18T05:19:22.321Z,2.74
2022-10-18T05:22:14.632Z,2.60
2022-10-18T05:25:02.003Z,2.20
2022-10-18T05:27:53.232Z,2.57
2022-10-18T05:30:40.858Z,2.27
2022-10-18T05:33:27.682Z,2.50
2022-10-18T05:36:14.945Z,2.70
2022-10-18T05:39:04.942Z,2.73
2022-10-18T05:41:52.002Z,2.40
2022-10-18T05:44:40.209Z,2.80
2022-10-18T05:47:27.307Z,2.80
2022-10-18T05:50:13.973Z,2.23
2022-10-18T05:53:11.927Z,2.70
2022-10-18T05:56:08.972Z,3.10
2022-10-18T05:58:55.969Z,2.90
2022-10-18T06:01:44.503Z,2.67
2022-10-18T06:04:31.310Z,2.70
2022-10-18T06:07:18.382Z,2.77
2022-10-18T06:10:05.429Z,3.63
2022-10-18T06:12:52.549Z,3.47
2022-10-18T06:15:39.362Z,3.23
2022-10-18T06:18:27.557Z,2.80
2022-10-18T06:21:14.301Z,2.93
2022-10-18T06:24:01.159Z,2.27
2022-10-18T06:26:48.303Z,3.00
2022-10-18T06:29:35.506Z,3.03
2022-10-18T06:32:22.388Z,3.20
2022-10-18T06:35:11.104Z,2.60
2022-10-18T06:37:58.321Z,2.70
2022-10-18T06:40:44.963Z,2.60
2022-10-18T06:43:31.894Z,3.13
2022-10-18T06:46:18.666Z,3.33
2022-10-18T06:49:05.477Z,2.83
2022-10-18T06:51:55.414Z,3.53
2022-10-18T06:54:44.212Z,3.23
2022-10-18T06:57:32.123Z,3.50
2022-10-18T07:00:18.884Z,3.80
2022-10-18T07:03:05.769Z,3.00
2022-10-18T07:05:52.747Z,3.40
2022-10-18T07:08:41.259Z,2.57
2022-10-18T07:11:28.751Z,3.43
2022-10-18T07:14:16.554Z,2.63
2022-10-18T07:17:03.352Z,2.60
2022-10-18T07:19:50.161Z,2.83
2022-10-18T07:22:38.131Z,2.70
2022-10-18T07:25:28.477Z,3.10
2022-10-18T07:28:17.349Z,2.80
2022-10-18T07:31:06.984Z,2.53
2022-10-18T07:33:54.225Z,2.80
2022-10-18T07:36:42.225Z,2.47
2022-10-18T07:39:29.101Z,2.93
2022-10-18T07:42:17.326Z,2.70
2022-10-18T07:45:04.101Z,3.58
2022-10-18T07:47:55.970Z,2.80
2022-10-18T07:50:43.392Z,3.17
2022-10-18T07:53:30.372Z,3.00
2022-10-18T07:56:21.315Z,3.60
2022-10-18T07:59:11.698Z,3.60
2022-10-18T08:01:58.685Z,3.50
2022-10-18T08:04:45.483Z,3.55
2022-10-18T08:07:33.574Z,3.10
2022-10-18T08:10:20.663Z,2.53
2022-10-18T08:13:08.057Z,2.25
2022-10-18T08:16:01.458Z,2.30
2022-10-18T08:18:48.322Z,2.53
2022-10-18T08:21:35.530Z,2.15
2022-10-18T08:24:22.049Z,2.13
2022-10-18T08:27:09.382Z,1.80
2022-10-18T08:29:59.867Z,1.90
2022-10-18T08:32:48.247Z,1.55
2022-10-18T08:35:34.951Z,1.98
2022-10-18T08:38:21.651Z,2.53
2022-10-18T08:41:28.437Z,1.70
2022-10-18T08:44:20.467Z,1.95
2022-10-18T08:47:12.462Z,1.98
2022-10-18T08:50:04.133Z,1.70
2022-10-18T08:52:58.853Z,2.40
2022-10-18T08:55:50.660Z,1.70
2022-10-18T08:58:38.104Z,1.90
2022-10-18T09:01:36.435Z,1.83
2022-10-18T09:04:37.007Z,1.65
2022-10-18T09:07:51.638Z,2.00
2022-10-18T09:10:46.050Z,2.25
2022-10-18T09:14:04.872Z,1.90
2022-10-18T09:16:59.507Z,1.52
2022-10-18T09:20:03.957Z,1.88
2022-10-18T09:22:56.255Z,2.00
2022-10-18T09:25:47.208Z,1.77
2022-10-18T09:28:44.457Z,2.00
2022-10-18T09:31:43.214Z,1.98
2022-10-18T09:34:35.976Z,1.70
2022-10-18T09:37:25.125Z,1.85
2022-10-18T09:40:19.161Z,1.90
2022-10-18T09:43:13.255Z,1.88
2022-10-18T09:46:00.359Z,1.80
2022-10-18T09:48:52.805Z,2.45
2022-10-18T09:51:42.698Z,1.83
2022-10-18T09:54:34.211Z,1.92
2022-10-18T09:57:29.250Z,1.60
2022-10-18T10:00:19.590Z,1.70
2022-10-18T10:03:13.031Z,1.80
2022-10-18T10:06:15.926Z,1.90
2022-10-18T10:09:07.847Z,1.88
2022-10-18T10:11:55.805Z,1.90
2022-10-18T10:14:45.944Z,1.80
2022-10-18T10:17:34.582Z,1.83
2022-10-18T10:20:24.318Z,2.15
2022-10-18T10:26:24.368Z,1.80
2022-10-18T10:29:48.389Z,1.42
2022-10-18T10:32:47.914Z,1.75
2022-10-18T10:35:53.803Z,2.00
2022-10-18T10:38:41.179Z,1.90
2022-10-18T10:41:28.455Z,2.10
2022-10-18T10:44:18.817Z,2.00
2022-10-18T10:47:06.100Z,1.88
2022-10-18T10:49:57.808Z,1.70
2022-10-18T10:52:49.566Z,1.98
2022-10-18T10:55:37.561Z,1.65
2022-10-18T10:58:24.679Z,1.33
2022-10-18T11:01:26.708Z,1.63
2022-10-18T11:04:28.260Z,1.80
2022-10-18T11:07:21.496Z,1.60
2022-10-18T11:10:14.922Z,1.80
2022-10-18T11:13:08.830Z,2.08
2022-10-18T11:16:02.190Z,1.80
2022-10-18T11:18:52.497Z,1.95
2022-10-18T11:21:41.063Z,2.10
2022-10-18T11:24:29.252Z,1.80
2022-10-18T11:27:23.469Z,1.63
2022-10-18T11:30:28.927Z,1.40
2022-10-18T11:33:44.256Z,2.22
2022-10-18T11:36:56.301Z,1.90
2022-10-18T11:40:02.686Z,2.00
2022-10-18T11:42:55.584Z,2.05
2022-10-18T11:45:48.042Z,2.08
2022-10-18T11:48:48.422Z,1.58
2022-10-18T11:52:03.086Z,1.77
2022-10-18T11:55:11.353Z,1.70
2022-10-18T11:58:05.865Z,1.85
2022-10-18T12:00:58.113Z,1.70
2022-10-18T12:03:55.284Z,2.00
2022-10-18T12:06:44.352Z,1.65
2022-10-18T12:09:37.409Z,2.00
2022-10-18T12:12:29.541Z,1.70
2022-10-18T12:15:21.408Z,1.77
2022-10-18T12:18:12.677Z,1.90
2022-10-18T12:21:00.990Z,1.70
2022-10-18T12:23:53.713Z,2.00
2022-10-18T12:26:40.768Z,1.80
2022-10-18T12:29:34.105Z,1.63
2022-10-18T12:32:26.937Z,2.10
2022-10-18T12:35:19.939Z,1.85
2022-10-18T12:38:20.756Z,1.75
2022-10-18T12:41:08.359Z,2.08
2022-10-18T12:44:00.020Z,1.80
2022-10-18T12:46:51.059Z,2.08
2022-10-18T12:49:42.672Z,1.60
2022-10-18T12:52:34.599Z,2.17
2022-10-18T12:55:40.157Z,1.80
2022-10-18T12:58:30.236Z,2.03
2022-10-18T13:01:17.013Z,2.13
2022-10-18T13:04:27.831Z,2.17
2022-10-18T13:07:22.132Z,1.85
2022-10-18T13:10:36.994Z,1.85
2022-10-18T13:13:52.773Z,1.75
2022-10-18T13:16:44.613Z,2.00
2022-10-18T13:19:41.628Z,2.00
2022-10-18T13:22:49.416Z,1.83
2022-10-18T13:25:51.120Z,1.77
2022-10-18T13:28:43.756Z,2.17
2022-10-18T13:31:39.368Z,1.63
2022-10-18T13:34:29.404Z,1.50
2022-10-18T13:37:24.875Z,1.70
2022-10-18T13:40:25.836Z,1.92
2022-10-18T13:43:48.939Z,1.60
2022-10-18T13:47:10.801Z,1.77
2022-10-18T13:50:28.148Z,1.70
2022-10-18T13:53:39.530Z,1.73
2022-10-18T13:56:58.600Z,1.40
2022-10-18T14:00:14.112Z,1.50
2022-10-18T14:03:54.958Z,1.45
2022-10-18T14:06:37.173Z,1.48
2022-10-18T14:09:43.655Z,1.55
2022-10-18T14:12:39.350Z,1.20
2022-10-18T14:15:28.446Z,1.67
2022-10-18T14:18:20.040Z,1.27
2022-10-18T14:21:14.226Z,1.50
2022-10-18T14:24:03.946Z,2.03
2022-10-18T14:27:12.888Z,1.77
2022-10-18T14:30:11.668Z,1.80
2022-10-18T14:32:59.598Z,1.70
2022-10-18T14:36:00.804Z,2.00
2022-10-18T14:38:50.746Z,1.70
2022-10-18T14:41:39.118Z,1.90
2022-10-18T14:44:29.625Z,1.85
2022-10-18T14:47:19.067Z,2.30
2022-10-18T14:50:22.523Z,1.70
2022-10-18T14:53:14.865Z,1.95
2022-10-18T14:56:04.255Z,2.35
2022-10-18T14:58:53.300Z,1.83
2022-10-18T15:01:41.699Z,1.90
2022-10-18T15:04:32.978Z,1.70
2022-10-18T15:07:20.909Z,1.73
2022-10-18T15:10:09.648Z,1.80
2022-10-18T15:13:16.648Z,1.65
2022-10-18T15:16:04.308Z,2.00
2022-10-18T15:19:04.767Z,2.00
2022-10-18T15:25:29.352Z,1.63
2022-10-18T15:28:29.354Z,1.80
2022-10-18T15:31:24.124Z,2.00
2022-10-18T15:34:16.655Z,1.83
2022-10-18T15:37:18.356Z,2.17
2022-10-18T15:40:34.110Z,2.00
2022-10-18T15:43:40.214Z,1.90
2022-10-18T15:46:33.362Z,2.00
2022-10-18T15:49:55.313Z,2.05
2022-10-18T15:52:43.067Z,2.13
2022-10-18T15:55:58.856Z,2.03
2022-10-18T15:58:46.893Z,1.95
2022-10-18T16:01:39.749Z,2.25
2022-10-18T16:04:30.576Z,2.50
2022-10-18T16:07:18.678Z,2.72
2022-10-18T16:10:13.974Z,2.28
2022-10-18T16:13:00.952Z,2.70
2022-10-18T16:15:47.676Z,2.42
2022-10-18T16:18:35.849Z,3.08
2022-10-18T16:21:24.942Z,3.10
2022-10-18T16:24:13.233Z,2.58
2022-10-18T16:27:00.141Z,2.38
2022-10-18T16:29:46.869Z,2.60
2022-10-18T16:32:34.113Z,2.10
2022-10-18T16:35:21.587Z,2.85
2022-10-18T16:38:18.984Z,3.22
2022-10-18T16:41:08.700Z,2.53
2022-10-18T16:43:55.756Z,2.17
2022-10-18T16:46:42.669Z,2.60
2022-10-18T16:49:29.930Z,3.53
2022-10-18T16:52:17.098Z,3.63
2022-10-18T16:55:03.781Z,2.63
2022-10-18T16:57:52.732Z,2.50
2022-10-18T17:00:41.175Z,3.07
2022-10-18T17:03:28.270Z,2.70
2022-10-18T17:06:17.804Z,3.20
2022-10-18T17:09:05.996Z,2.50
2022-10-18T17:11:52.730Z,2.90
2022-10-18T17:14:41.076Z,2.87
2022-10-18T17:17:27.823Z,2.67
2022-10-18T17:20:21.463Z,2.90
2022-10-18T17:23:08.856Z,3.10
2022-10-18T17:26:05.503Z,2.60
2022-10-18T17:28:59.045Z,2.30
2022-10-18T17:31:47.402Z,2.40
2022-10-18T17:34:35.969Z,2.73
2022-10-18T17:37:22.872Z,3.13
2022-10-18T17:40:11.070Z,3.17
2022-10-18T17:42:58.072Z,3.50
2022-10-18T17:45:49.275Z,2.87
2022-10-18T17:48:37.342Z,3.30
2022-10-18T17:51:24.551Z,3.10
2022-10-18T17:54:11.219Z,3.10
2022-10-18T17:56:58.213Z,3.70
2022-10-18T17:59:45.130Z,3.83
2022-10-18T18:02:32.263Z,2.93
2022-10-18T18:05:20.923Z,2.93
2022-10-18T18:08:07.598Z,2.53
2022-10-18T18:10:55.913Z,2.60
2022-10-18T18:13:43.097Z,3.17
2022-10-18T18:16:32.862Z,3.37
2022-10-18T18:19:20.078Z,3.10
2022-10-18T18:22:08.513Z,3.27
2022-10-18T18:24:55.467Z,3.40
2022-10-18T18:27:42.402Z,3.17
2022-10-18T18:30:29.337Z,3.87
2022-10-18T18:33:16.364Z,2.67
2022-10-18T18:36:04.891Z,2.83
2022-10-18T18:38:57.004Z,2.87
2022-10-18T18:41:44.948Z,2.93
2022-10-18T18:44:33.977Z,2.90
2022-10-18T18:47:23.459Z,2.93
2022-10-18T18:50:10.957Z,3.23
2022-10-18T18:53:01.083Z,3.53
2022-10-18T18:55:50.856Z,3.03
2022-10-18T18:58:39.811Z,2.87
2022-10-18T19:01:29.033Z,3.20
2022-10-18T19:04:17.048Z,3.83
2022-10-18T19:07:04.287Z,3.37
2022-10-18T19:09:51.173Z,3.23
2022-10-18T19:12:40.542Z,3.50
2022-10-18T19:15:27.708Z,3.77
2022-10-18T19:18:14.571Z,3.33
2022-10-18T19:21:01.576Z,3.47
2022-10-18T19:23:50.884Z,3.53
2022-10-18T19:26:44.531Z,3.30
2022-10-18T19:29:35.410Z,3.33
2022-10-18T19:32:22.698Z,3.13
2022-10-18T19:35:10.293Z,3.00
2022-10-18T19:37:57.261Z,2.77
2022-10-18T19:40:44.174Z,2.70
2022-10-18T19:43:30.979Z,3.00
2022-10-18T19:46:19.509Z,3.20
2022-10-18T19:49:06.486Z,3.27
2022-10-18T19:51:53.323Z,3.00
2022-10-18T19:54:40.253Z,3.00
2022-10-18T19:57:27.180Z,3.33
2022-10-18T20:00:19.333Z,3.20
2022-10-18T20:03:08.480Z,2.70
2022-10-18T20:05:59.178Z,2.77
2022-10-18T20:08:46.363Z,3.30
2022-10-18T20:11:33.609Z,3.70
2022-10-18T20:14:21.215Z,2.80
2022-10-18T20:17:12.096Z,2.80
2022-10-18T20:20:00.457Z,2.27
2022-10-18T20:22:47.446Z,2.50
2022-10-18T20:25:34.299Z,2.87
2022-10-18T20:28:24.285Z,2.70
2022-10-18T20:31:13.614Z,2.47
2022-10-18T20:34:02.039Z,2.80
2022-10-18T20:36:50.016Z,2.70
2022-10-18T20:39:36.696Z,2.27
2022-10-18T20:42:23.838Z,2.47
2022-10-18T20:45:12.428Z,2.50
2022-10-18T20:47:59.309Z,2.70
2022-10-18T20:50:46.341Z,3.17
2022-10-18T20:53:36.077Z,3.13
2022-10-18T20:56:26.702Z,2.73
2022-10-18T20:59:14.705Z,3.00
2022-10-18T21:02:01.299Z,2.40
2022-10-18T21:04:48.434Z,3.07
2022-10-18T21:07:37.133Z,3.07
2022-10-18T21:10:25.977Z,2.50
2022-10-18T21:13:12.711Z,2.77
2022-10-18T21:16:00.276Z,2.63
2022-10-18T21:18:47.751Z,2.33
2022-10-18T21:21:34.451Z,2.50
2022-10-18T21:24:23.428Z,2.60
2022-10-18T21:27:11.552Z,2.60
2022-10-18T21:29:58.615Z,2.50
2022-10-18T21:32:45.827Z,3.20
2022-10-18T21:35:37.081Z,2.40
2022-10-18T21:38:23.619Z,2.27
2022-10-18T21:41:13.397Z,2.57
2022-10-18T21:44:05.538Z,2.40
2022-10-18T21:46:55.531Z,2.63
2022-10-18T21:49:42.455Z,2.57
2022-10-18T21:52:29.508Z,2.53
2022-10-18T21:55:16.610Z,2.97
2022-10-18T21:58:03.447Z,2.50
2022-10-18T22:00:51.686Z,2.57
2022-10-18T22:03:40.350Z,2.90
2022-10-18T22:06:29.688Z,2.20
2022-10-18T22:09:16.687Z,2.50
2022-10-18T22:12:03.725Z,2.00
2022-10-18T22:14:50.765Z,2.50
2022-10-18T22:17:39.205Z,2.50
2022-10-18T22:20:25.761Z,2.77
2022-10-18T22:23:13.029Z,2.60
2022-10-18T22:26:04.370Z,2.40
2022-10-18T22:28:56.556Z,2.50
2022-10-18T22:31:45.780Z,2.60
2022-10-18T22:34:34.134Z,2.73
2022-10-18T22:37:20.902Z,2.43
2022-10-18T22:40:09.167Z,2.60
2022-10-18T22:42:56.087Z,2.23
2022-10-18T22:45:42.596Z,2.47
2022-10-18T22:48:29.717Z,2.43
2022-10-18T22:51:17.892Z,2.40
2022-10-18T22:54:05.014Z,2.30
2022-10-18T22:56:52.432Z,2.17
2022-10-18T22:59:39.208Z,2.20
2022-10-18T23:02:25.847Z,2.43
2022-10-18T23:05:12.779Z,2.00
2022-10-18T23:08:01.091Z,2.23
2022-10-18T23:10:47.861Z,2.33
2022-10-18T23:13:37.393Z,2.00
2022-10-18T23:16:26.462Z,2.60
2022-10-18T23:19:16.580Z,2.10
2022-10-18T23:22:03.238Z,2.43
2022-10-18T23:24:51.555Z,2.20
2022-10-18T23:27:38.295Z,2.17
2022-10-18T23:30:25.407Z,2.30
2022-10-18T23:33:12.296Z,2.43
2022-10-18T23:36:00.695Z,2.40
2022-10-18T23:38:47.841Z,2.43
2022-10-18T23:41:36.400Z,2.53
2022-10-18T23:44:23.226Z,2.50
2022-10-18T23:47:10.267Z,2.33
2022-10-18T23:49:58.898Z,2.67
2022-10-18T23:52:45.928Z,1.97
2022-10-18T23:55:32.996Z,2.43
2022-10-18T23:58:21.702Z,2.07
